sensor_id;sensor_type;location;lat;lon;timestamp;P1;durP1;ratioP1;P2;durP2;ratioP2
5191;SDS011;2615;44.524;11.284;2023-06-10T00:00:03;28.30;;;20.93;;
5191;SDS011;2615;44.524;11.284;2023-06-10T00:02:33;25.83;;;21.93;;
5191;SDS011;2615;44.524;11.284;2023-06-10T00:05:02;25.03;;;20.10;;
5191;SDS011;2615;44.524;11.284;2023-06-10T00:07:32;27.43;;;20.50;;
5191;SDS011;2615;44.524;11.284;2023-06-10T00:10:04;30.40;;;20.83;;
5191;SDS011;2615;44.524;11.284;2023-06-10T00:12:33;27.53;;;20.27;;
5191;SDS011;2615;44.524;11.284;2023-06-10T00:15:03;28.17;;;20.87;;
5191;SDS011;2615;44.524;11.284;2023-06-10T00:17:33;29.43;;;23.70;;
5191;SDS011;2615;44.524;11.284;2023-06-10T00:20:06;23.77;;;21.23;;
5191;SDS011;2615;44.524;11.284;2023-06-10T00:22:38;27.57;;;22.43;;
5191;SDS011;2615;44.524;11.284;2023-06-10T00:25:08;26.43;;;23.40;;
5191;SDS011;2615;44.524;11.284;2023-06-10T00:27:38;27.40;;;22.67;;
5191;SDS011;2615;44.524;11.284;2023-06-10T00:30:07;27.07;;;22.77;;
5191;SDS011;2615;44.524;11.284;2023-06-10T00:32:35;25.07;;;21.40;;
5191;SDS011;2615;44.524;11.284;2023-06-10T00:35:04;27.97;;;23.93;;
5191;SDS011;2615;44.524;11.284;2023-06-10T00:37:34;37.30;;;21.70;;
5191;SDS011;2615;44.524;11.284;2023-06-10T00:40:04;23.73;;;20.40;;
5191;SDS011;2615;44.524;11.284;2023-06-10T00:42:35;26.60;;;21.20;;
5191;SDS011;2615;44.524;11.284;2023-06-10T00:45:04;27.40;;;22.47;;
5191;SDS011;2615;44.524;11.284;2023-06-10T00:47:33;28.33;;;21.87;;
5191;SDS011;2615;44.524;11.284;2023-06-10T00:50:03;31.03;;;25.30;;
5191;SDS011;2615;44.524;11.284;2023-06-10T00:52:32;32.73;;;24.80;;
5191;SDS011;2615;44.524;11.284;2023-06-10T00:55:04;39.30;;;26.73;;
5191;SDS011;2615;44.524;11.284;2023-06-10T00:57:34;28.77;;;24.17;;
5191;SDS011;2615;44.524;11.284;2023-06-10T01:00:04;37.40;;;28.70;;
5191;SDS011;2615;44.524;11.284;2023-06-10T01:02:35;39.30;;;30.10;;
5191;SDS011;2615;44.524;11.284;2023-06-10T01:05:04;46.07;;;32.07;;
5191;SDS011;2615;44.524;11.284;2023-06-10T01:07:34;43.40;;;31.60;;
5191;SDS011;2615;44.524;11.284;2023-06-10T01:10:09;46.63;;;32.47;;
5191;SDS011;2615;44.524;11.284;2023-06-10T01:12:43;38.50;;;32.10;;
5191;SDS011;2615;44.524;11.284;2023-06-10T01:15:16;40.93;;;31.53;;
5191;SDS011;2615;44.524;11.284;2023-06-10T01:17:54;44.67;;;32.10;;
5191;SDS011;2615;44.524;11.284;2023-06-10T01:20:24;40.67;;;29.90;;
5191;SDS011;2615;44.524;11.284;2023-06-10T01:22:56;43.47;;;32.00;;
5191;SDS011;2615;44.524;11.284;2023-06-10T01:25:25;38.00;;;30.83;;
5191;SDS011;2615;44.524;11.284;2023-06-10T01:27:57;37.07;;;29.40;;
5191;SDS011;2615;44.524;11.284;2023-06-10T01:30:31;36.73;;;28.70;;
5191;SDS011;2615;44.524;11.284;2023-06-10T01:33:04;42.13;;;29.83;;
5191;SDS011;2615;44.524;11.284;2023-06-10T01:35:37;40.40;;;29.80;;
5191;SDS011;2615;44.524;11.284;2023-06-10T01:38:08;49.87;;;31.77;;
5191;SDS011;2615;44.524;11.284;2023-06-10T01:40:37;42.47;;;30.37;;
5191;SDS011;2615;44.524;11.284;2023-06-10T01:43:07;39.17;;;29.60;;
5191;SDS011;2615;44.524;11.284;2023-06-10T01:45:35;38.80;;;29.27;;
5191;SDS011;2615;44.524;11.284;2023-06-10T01:48:03;35.23;;;26.27;;
5191;SDS011;2615;44.524;11.284;2023-06-10T01:50:31;37.67;;;28.07;;
5191;SDS011;2615;44.524;11.284;2023-06-10T01:53:00;34.07;;;25.77;;
5191;SDS011;2615;44.524;11.284;2023-06-10T01:55:29;36.87;;;26.50;;
5191;SDS011;2615;44.524;11.284;2023-06-10T01:57:58;32.30;;;25.77;;
5191;SDS011;2615;44.524;11.284;2023-06-10T02:00:26;28.87;;;23.67;;
5191;SDS011;2615;44.524;11.284;2023-06-10T02:02:54;28.67;;;24.20;;
5191;SDS011;2615;44.524;11.284;2023-06-10T02:05:22;37.70;;;25.07;;
5191;SDS011;2615;44.524;11.284;2023-06-10T02:07:50;32.80;;;23.90;;
5191;SDS011;2615;44.524;11.284;2023-06-10T02:10:19;34.13;;;25.07;;
5191;SDS011;2615;44.524;11.284;2023-06-10T02:12:48;27.50;;;22.27;;
5191;SDS011;2615;44.524;11.284;2023-06-10T02:15:16;31.40;;;23.47;;
5191;SDS011;2615;44.524;11.284;2023-06-10T02:17:44;31.57;;;22.90;;
5191;SDS011;2615;44.524;11.284;2023-06-10T02:20:13;28.63;;;23.60;;
5191;SDS011;2615;44.524;11.284;2023-06-10T02:22:41;31.30;;;24.13;;
5191;SDS011;2615;44.524;11.284;2023-06-10T02:25:09;32.53;;;24.10;;
5191;SDS011;2615;44.524;11.284;2023-06-10T02:27:37;32.50;;;25.30;;
5191;SDS011;2615;44.524;11.284;2023-06-10T02:30:08;30.43;;;24.87;;
5191;SDS011;2615;44.524;11.284;2023-06-10T02:32:37;30.30;;;24.30;;
5191;SDS011;2615;44.524;11.284;2023-06-10T02:35:05;30.97;;;26.17;;
5191;SDS011;2615;44.524;11.284;2023-06-10T02:37:34;33.30;;;25.60;;
5191;SDS011;2615;44.524;11.284;2023-06-10T02:40:02;33.40;;;24.70;;
5191;SDS011;2615;44.524;11.284;2023-06-10T02:42:32;41.13;;;29.03;;
5191;SDS011;2615;44.524;11.284;2023-06-10T02:45:00;37.20;;;29.20;;
5191;SDS011;2615;44.524;11.284;2023-06-10T02:47:30;36.27;;;28.20;;
5191;SDS011;2615;44.524;11.284;2023-06-10T02:49:58;36.23;;;27.90;;
5191;SDS011;2615;44.524;11.284;2023-06-10T02:52:26;33.77;;;27.10;;
5191;SDS011;2615;44.524;11.284;2023-06-10T02:54:55;33.87;;;27.93;;
5191;SDS011;2615;44.524;11.284;2023-06-10T02:57:23;38.60;;;27.70;;
5191;SDS011;2615;44.524;11.284;2023-06-10T02:59:51;39.90;;;28.03;;
5191;SDS011;2615;44.524;11.284;2023-06-10T03:02:19;38.13;;;29.97;;
5191;SDS011;2615;44.524;11.284;2023-06-10T03:04:49;43.27;;;31.23;;
5191;SDS011;2615;44.524;11.284;2023-06-10T03:07:19;43.03;;;31.93;;
5191;SDS011;2615;44.524;11.284;2023-06-10T03:09:47;41.07;;;32.90;;
5191;SDS011;2615;44.524;11.284;2023-06-10T03:12:15;43.30;;;31.30;;
5191;SDS011;2615;44.524;11.284;2023-06-10T03:14:44;43.43;;;30.60;;
5191;SDS011;2615;44.524;11.284;2023-06-10T03:17:12;45.03;;;31.93;;
5191;SDS011;2615;44.524;11.284;2023-06-10T03:19:40;36.77;;;30.60;;
5191;SDS011;2615;44.524;11.284;2023-06-10T03:22:10;41.73;;;30.30;;
5191;SDS011;2615;44.524;11.284;2023-06-10T03:24:39;41.33;;;31.63;;
5191;SDS011;2615;44.524;11.284;2023-06-10T03:27:10;38.97;;;31.47;;
5191;SDS011;2615;44.524;11.284;2023-06-10T03:29:38;42.10;;;31.27;;
5191;SDS011;2615;44.524;11.284;2023-06-10T03:32:07;44.60;;;32.50;;
5191;SDS011;2615;44.524;11.284;2023-06-10T03:34:35;39.30;;;30.57;;
5191;SDS011;2615;44.524;11.284;2023-06-10T03:37:04;39.90;;;31.57;;
5191;SDS011;2615;44.524;11.284;2023-06-10T03:39:34;41.60;;;30.77;;
5191;SDS011;2615;44.524;11.284;2023-06-10T03:42:02;37.53;;;30.10;;
5191;SDS011;2615;44.524;11.284;2023-06-10T03:44:31;44.10;;;31.07;;
5191;SDS011;2615;44.524;11.284;2023-06-10T03:47:00;41.63;;;31.20;;
5191;SDS011;2615;44.524;11.284;2023-06-10T03:49:28;46.70;;;33.27;;
5191;SDS011;2615;44.524;11.284;2023-06-10T03:51:56;44.30;;;31.50;;
5191;SDS011;2615;44.524;11.284;2023-06-10T03:54:25;40.50;;;32.10;;
5191;SDS011;2615;44.524;11.284;2023-06-10T03:56:54;46.13;;;32.53;;
5191;SDS011;2615;44.524;11.284;2023-06-10T03:59:23;44.33;;;32.77;;
5191;SDS011;2615;44.524;11.284;2023-06-10T04:01:51;45.50;;;32.87;;
5191;SDS011;2615;44.524;11.284;2023-06-10T04:04:19;41.57;;;30.97;;
5191;SDS011;2615;44.524;11.284;2023-06-10T04:06:47;43.00;;;33.13;;
5191;SDS011;2615;44.524;11.284;2023-06-10T04:09:17;42.57;;;31.83;;
5191;SDS011;2615;44.524;11.284;2023-06-10T04:11:45;43.93;;;34.30;;
5191;SDS011;2615;44.524;11.284;2023-06-10T04:14:15;43.87;;;34.23;;
5191;SDS011;2615;44.524;11.284;2023-06-10T04:16:44;40.30;;;31.20;;
5191;SDS011;2615;44.524;11.284;2023-06-10T04:19:12;42.03;;;31.60;;
5191;SDS011;2615;44.524;11.284;2023-06-10T04:21:40;45.17;;;32.37;;
5191;SDS011;2615;44.524;11.284;2023-06-10T04:24:08;44.43;;;31.53;;
5191;SDS011;2615;44.524;11.284;2023-06-10T04:26:37;40.60;;;33.10;;
5191;SDS011;2615;44.524;11.284;2023-06-10T04:29:05;46.77;;;35.23;;
5191;SDS011;2615;44.524;11.284;2023-06-10T04:31:35;45.60;;;33.47;;
5191;SDS011;2615;44.524;11.284;2023-06-10T04:34:03;42.20;;;32.27;;
5191;SDS011;2615;44.524;11.284;2023-06-10T04:36:31;40.87;;;33.27;;
5191;SDS011;2615;44.524;11.284;2023-06-10T04:38:59;42.67;;;32.57;;
5191;SDS011;2615;44.524;11.284;2023-06-10T04:41:28;45.33;;;34.97;;
5191;SDS011;2615;44.524;11.284;2023-06-10T04:43:56;40.53;;;32.57;;
5191;SDS011;2615;44.524;11.284;2023-06-10T04:46:25;44.33;;;32.03;;
5191;SDS011;2615;44.524;11.284;2023-06-10T04:48:54;36.33;;;29.97;;
5191;SDS011;2615;44.524;11.284;2023-06-10T04:51:22;38.93;;;31.30;;
5191;SDS011;2615;44.524;11.284;2023-06-10T04:53:50;44.03;;;31.80;;
5191;SDS011;2615;44.524;11.284;2023-06-10T04:56:19;37.87;;;29.87;;
5191;SDS011;2615;44.524;11.284;2023-06-10T04:58:48;40.93;;;30.63;;
5191;SDS011;2615;44.524;11.284;2023-06-10T05:01:16;36.33;;;29.53;;
5191;SDS011;2615;44.524;11.284;2023-06-10T05:03:44;45.97;;;34.10;;
5191;SDS011;2615;44.524;11.284;2023-06-10T05:06:14;42.20;;;30.53;;
5191;SDS011;2615;44.524;11.284;2023-06-10T05:08:43;39.60;;;30.27;;
5191;SDS011;2615;44.524;11.284;2023-06-10T05:11:11;34.53;;;28.33;;
5191;SDS011;2615;44.524;11.284;2023-06-10T05:13:41;37.50;;;28.77;;
5191;SDS011;2615;44.524;11.284;2023-06-10T05:16:10;40.47;;;28.53;;
5191;SDS011;2615;44.524;11.284;2023-06-10T05:18:38;37.10;;;27.73;;
5191;SDS011;2615;44.524;11.284;2023-06-10T05:21:06;36.83;;;29.33;;
5191;SDS011;2615;44.524;11.284;2023-06-10T05:23:36;38.00;;;28.47;;
5191;SDS011;2615;44.524;11.284;2023-06-10T05:26:05;43.80;;;29.37;;
5191;SDS011;2615;44.524;11.284;2023-06-10T05:28:33;39.67;;;29.53;;
5191;SDS011;2615;44.524;11.284;2023-06-10T05:31:01;43.13;;;30.30;;
5191;SDS011;2615;44.524;11.284;2023-06-10T05:33:29;37.63;;;28.33;;
5191;SDS011;2615;44.524;11.284;2023-06-10T05:35:57;37.50;;;30.60;;
5191;SDS011;2615;44.524;11.284;2023-06-10T05:38:26;37.67;;;28.70;;
5191;SDS011;2615;44.524;11.284;2023-06-10T05:40:55;35.63;;;27.03;;
5191;SDS011;2615;44.524;11.284;2023-06-10T05:43:25;43.00;;;31.97;;
5191;SDS011;2615;44.524;11.284;2023-06-10T05:45:53;37.30;;;29.60;;
5191;SDS011;2615;44.524;11.284;2023-06-10T05:48:21;38.37;;;29.73;;
5191;SDS011;2615;44.524;11.284;2023-06-10T05:50:49;39.63;;;30.47;;
5191;SDS011;2615;44.524;11.284;2023-06-10T05:53:18;40.47;;;30.40;;
5191;SDS011;2615;44.524;11.284;2023-06-10T05:55:46;38.93;;;30.20;;
5191;SDS011;2615;44.524;11.284;2023-06-10T05:58:16;37.07;;;29.63;;
5191;SDS011;2615;44.524;11.284;2023-06-10T06:00:44;34.97;;;28.37;;
5191;SDS011;2615;44.524;11.284;2023-06-10T06:03:12;39.40;;;29.70;;
5191;SDS011;2615;44.524;11.284;2023-06-10T06:05:41;38.67;;;27.63;;
5191;SDS011;2615;44.524;11.284;2023-06-10T06:08:09;34.63;;;27.90;;
5191;SDS011;2615;44.524;11.284;2023-06-10T06:10:39;33.80;;;27.43;;
5191;SDS011;2615;44.524;11.284;2023-06-10T06:13:07;38.13;;;28.27;;
5191;SDS011;2615;44.524;11.284;2023-06-10T06:15:37;38.03;;;28.73;;
5191;SDS011;2615;44.524;11.284;2023-06-10T06:18:05;37.13;;;28.23;;
5191;SDS011;2615;44.524;11.284;2023-06-10T06:20:33;34.23;;;27.40;;
5191;SDS011;2615;44.524;11.284;2023-06-10T06:23:01;35.30;;;28.27;;
5191;SDS011;2615;44.524;11.284;2023-06-10T06:25:29;40.87;;;28.93;;
5191;SDS011;2615;44.524;11.284;2023-06-10T06:27:57;35.33;;;27.17;;
5191;SDS011;2615;44.524;11.284;2023-06-10T06:30:26;34.70;;;28.27;;
5191;SDS011;2615;44.524;11.284;2023-06-10T06:32:55;39.00;;;29.13;;
5191;SDS011;2615;44.524;11.284;2023-06-10T06:35:23;32.50;;;27.73;;
5191;SDS011;2615;44.524;11.284;2023-06-10T06:37:51;38.30;;;29.40;;
5191;SDS011;2615;44.524;11.284;2023-06-10T06:40:20;41.27;;;28.83;;
5191;SDS011;2615;44.524;11.284;2023-06-10T06:42:48;34.57;;;28.80;;
5191;SDS011;2615;44.524;11.284;2023-06-10T06:45:16;35.53;;;26.50;;
5191;SDS011;2615;44.524;11.284;2023-06-10T06:47:44;39.43;;;29.43;;
5191;SDS011;2615;44.524;11.284;2023-06-10T06:50:14;32.97;;;26.13;;
5191;SDS011;2615;44.524;11.284;2023-06-10T06:52:43;28.37;;;24.50;;
5191;SDS011;2615;44.524;11.284;2023-06-10T06:55:11;28.23;;;23.77;;
5191;SDS011;2615;44.524;11.284;2023-06-10T06:57:39;32.63;;;24.87;;
5191;SDS011;2615;44.524;11.284;2023-06-10T07:00:07;30.33;;;23.13;;
5191;SDS011;2615;44.524;11.284;2023-06-10T07:02:36;28.83;;;23.20;;
5191;SDS011;2615;44.524;11.284;2023-06-10T07:05:04;30.67;;;22.20;;
5191;SDS011;2615;44.524;11.284;2023-06-10T07:07:35;34.03;;;24.73;;
5191;SDS011;2615;44.524;11.284;2023-06-10T07:10:03;27.60;;;22.70;;
5191;SDS011;2615;44.524;11.284;2023-06-10T07:12:32;31.50;;;21.10;;
5191;SDS011;2615;44.524;11.284;2023-06-10T07:15:00;26.73;;;20.53;;
5191;SDS011;2615;44.524;11.284;2023-06-10T07:17:29;20.73;;;18.50;;
5191;SDS011;2615;44.524;11.284;2023-06-10T07:19:57;24.07;;;18.13;;
5191;SDS011;2615;44.524;11.284;2023-06-10T07:22:26;18.73;;;16.57;;
5191;SDS011;2615;44.524;11.284;2023-06-10T07:24:55;24.40;;;17.10;;
5191;SDS011;2615;44.524;11.284;2023-06-10T07:27:23;18.57;;;14.80;;
5191;SDS011;2615;44.524;11.284;2023-06-10T07:29:51;19.60;;;12.90;;
5191;SDS011;2615;44.524;11.284;2023-06-10T07:32:19;15.03;;;13.23;;
5191;SDS011;2615;44.524;11.284;2023-06-10T07:34:50;15.17;;;12.77;;
5191;SDS011;2615;44.524;11.284;2023-06-10T07:37:18;15.50;;;13.83;;
5191;SDS011;2615;44.524;11.284;2023-06-10T07:39:46;18.27;;;13.83;;
5191;SDS011;2615;44.524;11.284;2023-06-10T07:42:16;25.40;;;13.40;;
5191;SDS011;2615;44.524;11.284;2023-06-10T07:44:44;16.93;;;14.50;;
5191;SDS011;2615;44.524;11.284;2023-06-10T07:47:12;14.23;;;12.27;;
5191;SDS011;2615;44.524;11.284;2023-06-10T07:49:41;20.20;;;13.23;;
5191;SDS011;2615;44.524;11.284;2023-06-10T07:52:09;14.00;;;12.40;;
5191;SDS011;2615;44.524;11.284;2023-06-10T07:54:37;16.33;;;11.07;;
5191;SDS011;2615;44.524;11.284;2023-06-10T07:57:06;19.33;;;14.10;;
5191;SDS011;2615;44.524;11.284;2023-06-10T07:59:35;27.80;;;13.97;;
5191;SDS011;2615;44.524;11.284;2023-06-10T08:02:04;17.43;;;13.77;;
5191;SDS011;2615;44.524;11.284;2023-06-10T08:04:32;16.50;;;13.73;;
5191;SDS011;2615;44.524;11.284;2023-06-10T08:07:02;20.73;;;13.50;;
5191;SDS011;2615;44.524;11.284;2023-06-10T08:09:30;16.60;;;14.17;;
5191;SDS011;2615;44.524;11.284;2023-06-10T08:11:58;19.47;;;15.53;;
5191;SDS011;2615;44.524;11.284;2023-06-10T08:14:26;19.10;;;13.20;;
5191;SDS011;2615;44.524;11.284;2023-06-10T08:16:56;15.43;;;11.70;;
5191;SDS011;2615;44.524;11.284;2023-06-10T08:19:24;15.30;;;11.87;;
5191;SDS011;2615;44.524;11.284;2023-06-10T08:21:52;16.77;;;13.53;;
5191;SDS011;2615;44.524;11.284;2023-06-10T08:24:20;21.30;;;14.53;;
5191;SDS011;2615;44.524;11.284;2023-06-10T08:26:49;21.60;;;16.07;;
5191;SDS011;2615;44.524;11.284;2023-06-10T08:29:17;25.43;;;18.53;;
5191;SDS011;2615;44.524;11.284;2023-06-10T08:31:45;25.10;;;17.77;;
5191;SDS011;2615;44.524;11.284;2023-06-10T08:34:15;24.07;;;17.90;;
5191;SDS011;2615;44.524;11.284;2023-06-10T08:36:43;27.00;;;20.33;;
5191;SDS011;2615;44.524;11.284;2023-06-10T08:39:12;25.27;;;21.10;;
5191;SDS011;2615;44.524;11.284;2023-06-10T08:41:41;25.47;;;20.13;;
5191;SDS011;2615;44.524;11.284;2023-06-10T08:44:12;23.53;;;19.03;;
5191;SDS011;2615;44.524;11.284;2023-06-10T08:46:45;23.20;;;18.50;;
5191;SDS011;2615;44.524;11.284;2023-06-10T08:49:17;24.60;;;20.10;;
5191;SDS011;2615;44.524;11.284;2023-06-10T08:51:48;23.00;;;19.87;;
5191;SDS011;2615;44.524;11.284;2023-06-10T08:54:19;20.53;;;18.10;;
5191;SDS011;2615;44.524;11.284;2023-06-10T08:56:49;23.90;;;21.27;;
5191;SDS011;2615;44.524;11.284;2023-06-10T08:59:18;26.47;;;20.90;;
5191;SDS011;2615;44.524;11.284;2023-06-10T09:01:48;26.37;;;21.13;;
5191;SDS011;2615;44.524;11.284;2023-06-10T09:04:19;27.40;;;20.33;;
5191;SDS011;2615;44.524;11.284;2023-06-10T09:06:47;23.00;;;20.10;;
5191;SDS011;2615;44.524;11.284;2023-06-10T09:09:17;25.77;;;19.87;;
5191;SDS011;2615;44.524;11.284;2023-06-10T09:11:46;23.37;;;19.30;;
5191;SDS011;2615;44.524;11.284;2023-06-10T09:14:14;27.10;;;19.20;;
5191;SDS011;2615;44.524;11.284;2023-06-10T09:16:43;24.50;;;19.07;;
5191;SDS011;2615;44.524;11.284;2023-06-10T09:19:15;21.93;;;18.67;;
5191;SDS011;2615;44.524;11.284;2023-06-10T09:21:45;25.73;;;20.87;;
5191;SDS011;2615;44.524;11.284;2023-06-10T09:24:13;22.13;;;19.00;;
5191;SDS011;2615;44.524;11.284;2023-06-10T09:26:42;33.03;;;21.50;;
5191;SDS011;2615;44.524;11.284;2023-06-10T09:29:12;30.67;;;21.47;;
5191;SDS011;2615;44.524;11.284;2023-06-10T09:31:40;26.23;;;19.37;;
5191;SDS011;2615;44.524;11.284;2023-06-10T09:34:09;26.13;;;18.90;;
5191;SDS011;2615;44.524;11.284;2023-06-10T09:36:38;22.80;;;18.67;;
5191;SDS011;2615;44.524;11.284;2023-06-10T09:39:14;25.97;;;18.00;;
5191;SDS011;2615;44.524;11.284;2023-06-10T09:41:44;26.70;;;21.57;;
5191;SDS011;2615;44.524;11.284;2023-06-10T09:44:13;21.00;;;18.80;;
5191;SDS011;2615;44.524;11.284;2023-06-10T09:46:42;25.60;;;22.87;;
5191;SDS011;2615;44.524;11.284;2023-06-10T09:49:13;23.27;;;19.23;;
5191;SDS011;2615;44.524;11.284;2023-06-10T09:51:48;23.03;;;18.60;;
5191;SDS011;2615;44.524;11.284;2023-06-10T09:54:20;22.17;;;19.97;;
5191;SDS011;2615;44.524;11.284;2023-06-10T09:56:48;22.40;;;18.47;;
5191;SDS011;2615;44.524;11.284;2023-06-10T09:59:27;18.57;;;16.57;;
5191;SDS011;2615;44.524;11.284;2023-06-10T10:01:58;18.50;;;16.60;;
5191;SDS011;2615;44.524;11.284;2023-06-10T10:04:27;17.40;;;14.50;;
5191;SDS011;2615;44.524;11.284;2023-06-10T10:06:56;22.50;;;15.53;;
5191;SDS011;2615;44.524;11.284;2023-06-10T10:09:27;17.40;;;15.47;;
5191;SDS011;2615;44.524;11.284;2023-06-10T10:11:55;18.17;;;16.37;;
5191;SDS011;2615;44.524;11.284;2023-06-10T10:14:25;19.17;;;14.70;;
5191;SDS011;2615;44.524;11.284;2023-06-10T10:16:56;19.50;;;15.73;;
5191;SDS011;2615;44.524;11.284;2023-06-10T10:19:28;20.17;;;15.20;;
5191;SDS011;2615;44.524;11.284;2023-06-10T10:22:01;20.03;;;14.30;;
5191;SDS011;2615;44.524;11.284;2023-06-10T10:24:38;17.60;;;12.80;;
5191;SDS011;2615;44.524;11.284;2023-06-10T10:27:11;15.90;;;14.00;;
5191;SDS011;2615;44.524;11.284;2023-06-10T10:29:45;15.10;;;13.47;;
5191;SDS011;2615;44.524;11.284;2023-06-10T10:32:15;16.80;;;15.10;;
5191;SDS011;2615;44.524;11.284;2023-06-10T10:34:47;16.87;;;12.67;;
5191;SDS011;2615;44.524;11.284;2023-06-10T10:37:19;17.17;;;12.83;;
5191;SDS011;2615;44.524;11.284;2023-06-10T10:39:49;15.00;;;12.80;;
5191;SDS011;2615;44.524;11.284;2023-06-10T10:42:18;13.90;;;11.77;;
5191;SDS011;2615;44.524;11.284;2023-06-10T10:44:47;13.47;;;11.97;;
5191;SDS011;2615;44.524;11.284;2023-06-10T10:47:16;15.83;;;11.90;;
5191;SDS011;2615;44.524;11.284;2023-06-10T10:49:50;15.73;;;10.80;;
5191;SDS011;2615;44.524;11.284;2023-06-10T10:52:20;14.60;;;12.03;;
5191;SDS011;2615;44.524;11.284;2023-06-10T10:54:49;15.37;;;13.77;;
5191;SDS011;2615;44.524;11.284;2023-06-10T10:57:21;16.33;;;11.67;;
5191;SDS011;2615;44.524;11.284;2023-06-10T10:59:51;12.00;;;10.27;;
5191;SDS011;2615;44.524;11.284;2023-06-10T11:02:33;13.30;;;10.47;;
5191;SDS011;2615;44.524;11.284;2023-06-10T11:05:05;13.17;;;10.07;;
5191;SDS011;2615;44.524;11.284;2023-06-10T11:07:35;11.03;;;10.03;;
5191;SDS011;2615;44.524;11.284;2023-06-10T11:10:09;11.23;;;10.00;;
5191;SDS011;2615;44.524;11.284;2023-06-10T11:12:47;13.63;;;10.00;;
5191;SDS011;2615;44.524;11.284;2023-06-10T11:15:18;10.87;;;9.73;;
5191;SDS011;2615;44.524;11.284;2023-06-10T11:20:44;14.60;;;9.00;;
5191;SDS011;2615;44.524;11.284;2023-06-10T11:23:24;17.90;;;10.23;;
5191;SDS011;2615;44.524;11.284;2023-06-10T11:29:03;8.63;;;7.00;;
5191;SDS011;2615;44.524;11.284;2023-06-10T11:31:38;8.20;;;6.87;;
5191;SDS011;2615;44.524;11.284;2023-06-10T11:34:08;10.57;;;8.37;;
5191;SDS011;2615;44.524;11.284;2023-06-10T11:36:37;11.70;;;9.57;;
5191;SDS011;2615;44.524;11.284;2023-06-10T11:39:09;20.23;;;17.80;;
5191;SDS011;2615;44.524;11.284;2023-06-10T11:41:39;13.40;;;10.37;;
5191;SDS011;2615;44.524;11.284;2023-06-10T11:44:08;20.70;;;16.20;;
5191;SDS011;2615;44.524;11.284;2023-06-10T11:46:37;10.33;;;8.40;;
5191;SDS011;2615;44.524;11.284;2023-06-10T11:49:06;10.07;;;7.93;;
5191;SDS011;2615;44.524;11.284;2023-06-10T11:51:35;9.60;;;8.60;;
5191;SDS011;2615;44.524;11.284;2023-06-10T11:54:05;12.07;;;9.50;;
5191;SDS011;2615;44.524;11.284;2023-06-10T11:56:36;9.00;;;8.20;;
5191;SDS011;2615;44.524;11.284;2023-06-10T11:59:06;10.70;;;8.57;;
5191;SDS011;2615;44.524;11.284;2023-06-10T12:01:35;9.30;;;6.40;;
5191;SDS011;2615;44.524;11.284;2023-06-10T12:04:09;11.90;;;6.10;;
5191;SDS011;2615;44.524;11.284;2023-06-10T12:06:40;6.73;;;4.47;;
5191;SDS011;2615;44.524;11.284;2023-06-10T12:09:13;8.70;;;5.33;;
5191;SDS011;2615;44.524;11.284;2023-06-10T12:11:52;161.77;;;121.50;;
5191;SDS011;2615;44.524;11.284;2023-06-10T12:17:22;17.70;;;15.90;;
5191;SDS011;2615;44.524;11.284;2023-06-10T12:19:51;33.57;;;30.63;;
5191;SDS011;2615;44.524;11.284;2023-06-10T12:22:19;15.37;;;14.10;;
5191;SDS011;2615;44.524;11.284;2023-06-10T12:24:59;15.60;;;10.80;;
5191;SDS011;2615;44.524;11.284;2023-06-10T12:27:29;10.17;;;6.63;;
5191;SDS011;2615;44.524;11.284;2023-06-10T12:30:00;7.73;;;6.03;;
5191;SDS011;2615;44.524;11.284;2023-06-10T12:32:34;8.33;;;6.20;;
5191;SDS011;2615;44.524;11.284;2023-06-10T12:35:04;6.33;;;4.33;;
5191;SDS011;2615;44.524;11.284;2023-06-10T12:37:33;5.30;;;4.20;;
5191;SDS011;2615;44.524;11.284;2023-06-10T12:40:08;10.03;;;5.17;;
5191;SDS011;2615;44.524;11.284;2023-06-10T12:42:37;7.10;;;4.60;;
5191;SDS011;2615;44.524;11.284;2023-06-10T12:45:07;9.43;;;5.23;;
5191;SDS011;2615;44.524;11.284;2023-06-10T12:47:37;7.37;;;4.13;;
5191;SDS011;2615;44.524;11.284;2023-06-10T12:50:07;10.77;;;5.77;;
5191;SDS011;2615;44.524;11.284;2023-06-10T12:52:36;5.60;;;3.40;;
5191;SDS011;2615;44.524;11.284;2023-06-10T12:55:04;11.70;;;6.13;;
5191;SDS011;2615;44.524;11.284;2023-06-10T12:57:33;8.50;;;3.83;;
5191;SDS011;2615;44.524;11.284;2023-06-10T13:00:01;5.50;;;3.77;;
5191;SDS011;2615;44.524;11.284;2023-06-10T13:02:36;9.50;;;4.17;;
5191;SDS011;2615;44.524;11.284;2023-06-10T13:05:04;7.47;;;4.03;;
5191;SDS011;2615;44.524;11.284;2023-06-10T13:07:33;4.07;;;2.90;;
5191;SDS011;2615;44.524;11.284;2023-06-10T13:10:01;8.83;;;4.50;;
5191;SDS011;2615;44.524;11.284;2023-06-10T13:12:29;7.43;;;4.50;;
5191;SDS011;2615;44.524;11.284;2023-06-10T13:15:13;8.07;;;6.70;;
5191;SDS011;2615;44.524;11.284;2023-06-10T13:17:44;6.00;;;3.37;;
5191;SDS011;2615;44.524;11.284;2023-06-10T13:20:15;5.80;;;3.57;;
5191;SDS011;2615;44.524;11.284;2023-06-10T13:22:44;5.40;;;2.87;;
5191;SDS011;2615;44.524;11.284;2023-06-10T13:25:14;5.50;;;3.40;;
5191;SDS011;2615;44.524;11.284;2023-06-10T13:27:42;7.63;;;4.80;;
5191;SDS011;2615;44.524;11.284;2023-06-10T13:30:10;6.97;;;5.10;;
5191;SDS011;2615;44.524;11.284;2023-06-10T13:32:40;7.93;;;3.70;;
5191;SDS011;2615;44.524;11.284;2023-06-10T13:35:09;7.27;;;3.60;;
5191;SDS011;2615;44.524;11.284;2023-06-10T13:37:38;7.90;;;5.43;;
5191;SDS011;2615;44.524;11.284;2023-06-10T13:40:07;10.03;;;4.43;;
5191;SDS011;2615;44.524;11.284;2023-06-10T13:42:36;6.80;;;4.27;;
5191;SDS011;2615;44.524;11.284;2023-06-10T13:45:05;9.00;;;3.30;;
5191;SDS011;2615;44.524;11.284;2023-06-10T13:47:36;5.80;;;3.70;;
5191;SDS011;2615;44.524;11.284;2023-06-10T13:50:05;7.13;;;4.07;;
5191;SDS011;2615;44.524;11.284;2023-06-10T13:52:35;4.93;;;3.93;;
5191;SDS011;2615;44.524;11.284;2023-06-10T13:55:04;5.93;;;3.43;;
5191;SDS011;2615;44.524;11.284;2023-06-10T13:57:33;9.20;;;3.47;;
5191;SDS011;2615;44.524;11.284;2023-06-10T14:00:01;5.23;;;4.60;;
5191;SDS011;2615;44.524;11.284;2023-06-10T14:02:30;8.70;;;6.27;;
5191;SDS011;2615;44.524;11.284;2023-06-10T14:04:58;6.67;;;5.70;;
5191;SDS011;2615;44.524;11.284;2023-06-10T14:07:26;8.07;;;5.93;;
5191;SDS011;2615;44.524;11.284;2023-06-10T14:09:56;8.33;;;5.70;;
5191;SDS011;2615;44.524;11.284;2023-06-10T14:12:25;8.60;;;5.83;;
5191;SDS011;2615;44.524;11.284;2023-06-10T14:14:53;6.60;;;5.13;;
5191;SDS011;2615;44.524;11.284;2023-06-10T14:17:21;8.70;;;5.67;;
5191;SDS011;2615;44.524;11.284;2023-06-10T14:19:50;7.90;;;5.33;;
5191;SDS011;2615;44.524;11.284;2023-06-10T14:22:18;7.83;;;4.80;;
5191;SDS011;2615;44.524;11.284;2023-06-10T14:24:46;6.17;;;3.70;;
5191;SDS011;2615;44.524;11.284;2023-06-10T14:27:16;5.20;;;4.10;;
5191;SDS011;2615;44.524;11.284;2023-06-10T14:29:44;6.10;;;3.73;;
5191;SDS011;2615;44.524;11.284;2023-06-10T14:32:12;9.10;;;3.90;;
5191;SDS011;2615;44.524;11.284;2023-06-10T14:34:40;6.10;;;3.80;;
5191;SDS011;2615;44.524;11.284;2023-06-10T14:37:10;5.90;;;4.20;;
5191;SDS011;2615;44.524;11.284;2023-06-10T14:39:38;7.30;;;3.70;;
5191;SDS011;2615;44.524;11.284;2023-06-10T14:42:06;6.50;;;3.80;;
5191;SDS011;2615;44.524;11.284;2023-06-10T14:44:36;6.50;;;4.20;;
5191;SDS011;2615;44.524;11.284;2023-06-10T14:47:04;5.80;;;3.93;;
5191;SDS011;2615;44.524;11.284;2023-06-10T14:49:33;6.70;;;3.97;;
5191;SDS011;2615;44.524;11.284;2023-06-10T14:52:01;5.77;;;4.30;;
5191;SDS011;2615;44.524;11.284;2023-06-10T14:54:29;6.33;;;4.37;;
5191;SDS011;2615;44.524;11.284;2023-06-10T14:56:58;5.40;;;3.70;;
5191;SDS011;2615;44.524;11.284;2023-06-10T14:59:27;6.27;;;4.60;;
5191;SDS011;2615;44.524;11.284;2023-06-10T15:01:56;11.43;;;4.10;;